Guion, Arkansas
Current Conditions -  °F | °C
As of 10:35 AM on Friday 19 Dec 2014 (Local Time) from KBVX Reporting Station
Overcast Overcast  
Wind Chill:   Ceiling: 1300
Heat Index:   Visibility: 10mi
Dew Point:   Wind: 6mph
Humidity: 81%   Direction: 60°ENE
Pressure: 30.31"   Gusts: NA
Location:  35.93°N, 91.94°W
Report Text: KBVX 191635Z AUTO 06005KT 10SM BKN013 OVC032 04/01 A3031 RMK AO1
Loading
Personal Weather Stations






























Interactive Weather Map New forecast layout! Learn more

10-Day Weather Forecast

Advertisements
Track Severe Weather on mobile